Time;durP1;ratioP1;P1;durP2;ratioP2;P2;SDS_P1;SDS_P2;PMS_P1;PMS_P2;Temp;Humidity;BMP_temperature;BMP_pressure;BME280_temperature;BME280_humidity;BME280_pressure;Samples;Min_cycle;Max_cycle;Signal;HPM_P1;HPM_P2
2022/06/22 00:02:02;;;;;;;2.60;1.93;;;18.90;99.90;;;;;;4972823;28;20222;-78
2022/06/22 00:04:32;;;;;;;3.50;2.03;;;18.90;99.90;;;;;;4972372;28;20227;-79
2022/06/22 00:07:05;;;;;;;2.70;1.83;;;18.90;99.90;;;;;;4972446;28;20215;-78
2022/06/22 00:09:35;;;;;;;3.73;1.80;;;18.90;99.90;;;;;;4972272;28;20199;-77
2022/06/22 00:12:02;;;;;;;2.47;2.07;;;18.90;99.90;;;;;;4972286;28;20201;-78
2022/06/22 00:14:35;;;;;;;2.70;2.10;;;18.80;99.90;;;;;;4955696;28;20216;-78
2022/06/22 00:17:02;;;;;;;4.17;2.30;;;18.70;99.90;;;;;;4971602;28;20539;-78
2022/06/22 00:19:34;;;;;;;2.43;1.97;;;18.60;99.90;;;;;;4972003;28;20211;-77
2022/06/22 00:22:03;;;;;;;3.13;2.20;;;18.70;99.90;;;;;;4971912;28;20195;-78
2022/06/22 00:24:40;;;;;;;3.87;2.13;;;18.60;99.90;;;;;;4972175;28;20239;-78
2022/06/22 00:27:22;;;;;;;3.27;2.13;;;18.70;99.90;;;;;;4971970;28;20203;-78
2022/06/22 00:30:11;;;;;;;5.83;2.00;;;18.70;99.90;;;;;;4972505;28;20566;-76
2022/06/22 00:32:38;;;;;;;2.43;1.87;;;18.70;99.90;;;;;;4972109;28;20223;-80
2022/06/22 00:35:51;;;;;;;2.77;1.97;;;18.70;99.90;;;;;;4971686;28;20241;-80
2022/06/22 00:38:22;;;;;;;2.20;2.00;;;18.70;99.90;;;;;;4925432;28;20227;-80
2022/06/22 00:40:56;;;;;;;1.90;1.80;;;18.80;99.90;;;;;;4972051;28;20802;-79
2022/06/22 00:43:28;;;;;;;2.57;2.27;;;18.70;99.90;;;;;;4972001;28;20207;-80
2022/06/22 00:45:57;;;;;;;4.30;2.13;;;18.70;99.90;;;;;;4971346;28;20234;-80
2022/06/22 00:48:30;;;;;;;3.33;1.87;;;18.70;99.90;;;;;;4971887;28;20239;-80
2022/06/22 00:51:01;;;;;;;3.70;2.10;;;18.60;99.90;;;;;;4971762;28;20286;-77
2022/06/22 00:53:35;;;;;;;3.30;1.90;;;18.60;99.90;;;;;;4971564;28;20199;-76
2022/06/22 00:56:18;;;;;;;2.47;2.00;;;18.60;99.90;;;;;;4971488;28;20658;-77
2022/06/22 00:58:54;;;;;;;2.30;2.10;;;18.50;99.90;;;;;;4971479;28;20206;-76
2022/06/22 01:01:24;;;;;;;3.47;2.07;;;18.50;99.90;;;;;;4970930;28;20195;-76
2022/06/22 01:03:59;;;;;;;2.33;2.13;;;18.60;99.90;;;;;;4970319;28;20215;-76
2022/06/22 01:06:32;;;;;;;3.70;2.20;;;18.60;99.90;;;;;;4970515;28;20300;-77
2022/06/22 01:09:06;;;;;;;3.43;1.80;;;18.70;99.90;;;;;;4971091;28;20634;-78
2022/06/22 01:14:27;;;;;;;2.50;1.80;;;18.70;99.90;;;;;;4976193;28;20264;-78
2022/06/22 01:16:58;;;;;;;4.27;2.20;;;18.70;99.90;;;;;;4990781;28;20191;-79
2022/06/22 01:19:43;;;;;;;3.53;1.90;;;18.70;99.90;;;;;;4990491;28;20195;-80
2022/06/22 01:22:28;;;;;;;3.93;2.37;;;18.60;99.90;;;;;;4990317;28;20672;-79
2022/06/22 01:25:14;;;;;;;3.43;1.93;;;18.60;99.90;;;;;;4990255;28;20237;-79
2022/06/22 01:27:43;;;;;;;2.00;1.60;;;18.50;99.90;;;;;;4980527;28;20202;-77
2022/06/22 01:30:23;;;;;;;2.10;1.93;;;18.50;99.90;;;;;;4970274;28;21083;-77
2022/06/22 01:32:50;;;;;;;2.77;1.80;;;18.50;99.90;;;;;;4970544;28;20202;-77
2022/06/22 01:35:23;;;;;;;3.07;2.13;;;18.40;99.90;;;;;;4968997;28;20249;-77
2022/06/22 01:37:50;;;;;;;2.67;2.10;;;18.20;99.90;;;;;;4973382;28;20214;-88
2022/06/22 01:40:21;;;;;;;1.90;1.80;;;18.20;99.90;;;;;;4973514;28;20249;-86
2022/06/22 01:42:55;;;;;;;4.17;2.30;;;18.10;99.90;;;;;;4973033;28;20218;-87
2022/06/22 01:45:30;;;;;;;2.47;1.90;;;18.10;99.90;;;;;;4973770;28;20237;-90
2022/06/22 01:48:03;;;;;;;3.07;2.00;;;18.10;99.90;;;;;;4974254;28;20202;-89
2022/06/22 01:50:36;;;;;;;3.20;1.97;;;18.00;99.90;;;;;;4974795;28;20634;-89
2022/06/22 01:53:10;;;;;;;2.00;1.90;;;18.00;99.90;;;;;;4974472;28;20207;-89
2022/06/22 01:55:43;;;;;;;1.77;1.67;;;18.00;99.90;;;;;;4974449;28;20676;-89
2022/06/22 01:58:39;;;;;;;2.07;1.97;;;18.00;99.90;;;;;;4992097;28;20201;-89
2022/06/22 02:01:19;;;;;;;2.63;2.03;;;17.90;99.90;;;;;;4990316;28;20380;-89
2022/06/22 02:03:59;;;;;;;2.47;1.90;;;17.90;99.90;;;;;;4973189;28;20199;-89
2022/06/22 02:09:25;;;;;;;2.30;2.10;;;17.80;99.90;;;;;;4973127;28;20326;-89
2022/06/22 02:12:18;;;;;;;2.43;2.23;;;17.70;99.90;;;;;;4974012;28;20202;-89
2022/06/22 02:14:48;;;;;;;2.43;2.03;;;17.70;99.90;;;;;;4971389;28;20218;-89
2022/06/22 02:17:18;;;;;;;2.13;1.90;;;17.70;99.90;;;;;;4951994;28;20203;-79
2022/06/22 02:20:02;;;;;;;2.37;1.97;;;17.80;99.90;;;;;;4950524;28;20211;-78
2022/06/22 02:22:29;;;;;;;2.77;2.13;;;17.80;99.90;;;;;;4933750;29;20279;-79
2022/06/22 02:24:56;;;;;;;2.23;1.87;;;17.70;99.90;;;;;;4962072;28;20245;-80
2022/06/22 02:27:25;;;;;;;3.03;1.90;;;17.60;99.90;;;;;;4969460;28;20206;-80
2022/06/22 02:29:57;;;;;;;2.33;1.90;;;17.50;99.90;;;;;;4970387;28;20210;-80
2022/06/22 02:32:28;;;;;;;2.13;2.00;;;17.50;99.90;;;;;;4969263;28;20211;-81
2022/06/22 02:34:56;;;;;;;2.23;2.03;;;17.50;99.90;;;;;;4969254;28;20230;-81
2022/06/22 02:37:27;;;;;;;1.70;1.60;;;17.50;99.90;;;;;;4968991;28;20677;-80
2022/06/22 02:39:57;;;;;;;2.57;1.80;;;17.40;99.90;;;;;;4969152;28;20249;-81
2022/06/22 02:45:11;;;;;;;3.03;1.90;;;17.40;99.90;;;;;;4969855;28;20233;-80
2022/06/22 02:47:47;;;;;;;3.20;2.00;;;17.40;99.90;;;;;;4969556;28;20207;-81
2022/06/22 02:50:20;;;;;;;3.23;2.00;;;17.30;99.90;;;;;;4968194;28;20214;-81
2022/06/22 02:52:50;;;;;;;3.73;2.47;;;17.40;99.90;;;;;;4968088;28;20280;-79
2022/06/22 02:55:20;;;;;;;2.70;2.27;;;17.40;99.90;;;;;;4967848;28;20195;-80
2022/06/22 02:57:49;;;;;;;3.23;1.90;;;17.30;99.90;;;;;;4968007;28;20218;-79
2022/06/22 03:00:20;;;;;;;2.70;2.30;;;17.30;99.90;;;;;;4967450;28;20677;-80
2022/06/22 03:02:50;;;;;;;2.33;2.13;;;17.20;99.90;;;;;;4968878;28;20210;-80
2022/06/22 03:05:18;;;;;;;5.27;2.10;;;17.20;99.90;;;;;;4969257;28;20226;-80
2022/06/22 03:07:50;;;;;;;2.30;2.10;;;17.20;99.90;;;;;;4968844;28;20265;-80
2022/06/22 03:10:25;;;;;;;3.63;1.90;;;17.20;99.90;;;;;;4969258;28;20206;-80
2022/06/22 03:12:56;;;;;;;2.80;2.17;;;17.20;99.90;;;;;;4965466;28;20289;-79
2022/06/22 03:15:33;;;;;;;2.57;2.10;;;17.10;99.90;;;;;;4949714;29;20207;-77
2022/06/22 03:18:01;;;;;;;2.00;1.90;;;17.10;99.90;;;;;;4949862;29;20215;-80
2022/06/22 03:20:33;;;;;;;2.50;2.00;;;17.10;99.90;;;;;;4955383;28;20199;-78
2022/06/22 03:23:16;;;;;;;4.73;2.27;;;17.10;99.90;;;;;;4968692;28;20206;-79
2022/06/22 03:25:48;;;;;;;2.60;2.30;;;17.10;99.90;;;;;;4968727;28;20215;-79
2022/06/22 03:28:18;;;;;;;5.13;2.40;;;17.10;99.90;;;;;;4968227;28;20211;-79
2022/06/22 03:30:52;;;;;;;3.73;2.40;;;17.10;99.90;;;;;;4972607;28;20195;-79
2022/06/22 03:33:29;;;;;;;4.20;2.50;;;17.10;99.90;;;;;;4972450;28;20203;-80
2022/06/22 03:36:01;;;;;;;5.27;2.73;;;17.10;99.90;;;;;;4972536;28;20234;-80
2022/06/22 03:38:32;;;;;;;5.37;2.57;;;17.10;99.90;;;;;;4972983;28;20195;-80
2022/06/22 03:41:06;;;;;;;2.80;2.60;;;17.20;99.90;;;;;;4972336;28;20440;-80
2022/06/22 03:43:43;;;;;;;2.67;2.20;;;17.20;99.90;;;;;;4972778;28;20225;-80
2022/06/22 03:46:16;;;;;;;2.50;2.30;;;17.20;99.90;;;;;;4972568;28;20227;-80
2022/06/22 03:48:46;;;;;;;2.70;2.50;;;17.20;99.90;;;;;;4971826;28;20646;-80
2022/06/22 03:51:17;;;;;;;2.60;2.37;;;17.20;99.90;;;;;;4972361;28;20203;-80
2022/06/22 03:53:49;;;;;;;3.20;2.30;;;17.20;99.90;;;;;;4972637;28;20203;-80
2022/06/22 03:56:20;;;;;;;2.40;2.20;;;17.10;99.90;;;;;;4972438;28;20202;-80
2022/06/22 03:58:50;;;;;;;3.97;2.30;;;17.20;99.90;;;;;;4973091;28;20225;-80
2022/06/22 04:01:19;;;;;;;4.23;2.47;;;17.20;99.90;;;;;;4973132;28;20211;-80
2022/06/22 04:03:46;;;;;;;2.90;2.37;;;17.10;99.90;;;;;;4972162;28;20210;-80
2022/06/22 04:06:20;;;;;;;3.73;2.60;;;17.20;99.90;;;;;;4972240;28;20231;-79
2022/06/22 04:08:47;;;;;;;3.00;2.40;;;17.10;99.90;;;;;;4972263;28;20973;-80
2022/06/22 04:11:24;;;;;;;4.43;2.30;;;17.20;99.90;;;;;;4972392;28;20306;-80
2022/06/22 04:13:58;;;;;;;6.57;2.60;;;17.20;99.90;;;;;;4972219;28;20216;-80
2022/06/22 04:16:31;;;;;;;2.00;1.90;;;17.20;99.90;;;;;;4972980;28;20210;-80
2022/06/22 04:19:02;;;;;;;3.27;2.60;;;17.20;99.90;;;;;;4971959;28;20210;-80
2022/06/22 04:21:32;;;;;;;2.53;2.30;;;17.30;99.90;;;;;;4972508;28;20195;-79
2022/06/22 04:24:04;;;;;;;4.47;2.67;;;17.30;99.90;;;;;;4971831;28;20385;-80
2022/06/22 04:26:35;;;;;;;4.47;2.70;;;17.30;99.90;;;;;;4971995;28;20223;-80
2022/06/22 04:29:08;;;;;;;3.73;2.50;;;17.30;99.90;;;;;;4953047;29;20200;-80
2022/06/22 04:31:41;;;;;;;3.33;2.50;;;17.40;99.90;;;;;;4961570;28;20232;-80
2022/06/22 04:34:14;;;;;;;3.20;2.50;;;17.40;99.90;;;;;;4971783;28;20233;-80
2022/06/22 04:36:45;;;;;;;4.13;2.87;;;17.50;99.90;;;;;;4972019;28;20207;-80
2022/06/22 04:39:18;;;;;;;4.50;3.03;;;17.50;99.90;;;;;;4972020;28;20222;-80
2022/06/22 04:41:46;;;;;;;2.67;2.27;;;17.50;99.90;;;;;;4970303;28;20241;-79
2022/06/22 04:44:17;;;;;;;4.50;2.70;;;17.60;99.90;;;;;;4957334;28;20211;-79
2022/06/22 04:46:47;;;;;;;4.93;2.83;;;17.60;99.90;;;;;;4968745;28;20252;-80
2022/06/22 04:49:21;;;;;;;4.40;2.90;;;17.70;99.90;;;;;;4971104;28;20217;-80
2022/06/22 04:51:53;;;;;;;4.07;3.00;;;17.70;99.90;;;;;;4971948;28;20257;-80
2022/06/22 04:54:25;;;;;;;3.00;2.67;;;17.80;99.90;;;;;;4971481;28;20289;-79
2022/06/22 04:56:54;;;;;;;4.53;2.50;;;17.80;99.90;;;;;;4971387;28;20198;-80
2022/06/22 04:59:23;;;;;;;3.53;2.80;;;17.90;99.90;;;;;;4971174;28;20209;-80
2022/06/22 05:01:55;;;;;;;5.90;3.07;;;17.90;99.90;;;;;;4957228;28;20211;-80
2022/06/22 05:04:25;;;;;;;3.17;2.73;;;18.00;99.90;;;;;;4951956;29;20199;-80
2022/06/22 05:07:01;;;;;;;3.37;2.70;;;18.00;99.90;;;;;;4952097;29;20237;-79
2022/06/22 05:09:33;;;;;;;3.10;2.80;;;18.00;99.90;;;;;;4952022;29;20198;-79
2022/06/22 05:12:01;;;;;;;3.10;2.80;;;18.10;99.90;;;;;;4951729;29;20210;-80
2022/06/22 05:14:31;;;;;;;4.57;2.73;;;18.10;99.90;;;;;;4981195;28;20210;-80
2022/06/22 05:17:02;;;;;;;3.10;2.90;;;18.20;99.90;;;;;;4990705;28;20214;-80
2022/06/22 05:19:36;;;;;;;2.90;2.70;;;18.20;99.90;;;;;;4986957;28;20217;-80
2022/06/22 05:22:10;;;;;;;2.60;2.40;;;18.20;99.90;;;;;;4971348;28;20191;-80
2022/06/22 05:24:39;;;;;;;4.67;3.10;;;18.20;99.90;;;;;;4971139;28;20211;-79
2022/06/22 05:27:09;;;;;;;6.03;2.93;;;18.30;99.90;;;;;;4970938;28;20547;-79
2022/06/22 05:29:39;;;;;;;4.10;2.73;;;18.30;99.90;;;;;;4971210;28;20682;-79
2022/06/22 05:32:13;;;;;;;8.47;2.80;;;18.40;99.90;;;;;;4971095;28;20206;-80
2022/06/22 05:34:42;;;;;;;4.20;2.53;;;18.40;99.90;;;;;;4970896;28;20258;-80
2022/06/22 05:37:13;;;;;;;3.40;2.33;;;18.40;99.90;;;;;;4970603;28;20689;-80
2022/06/22 05:39:41;;;;;;;5.03;2.63;;;18.50;99.90;;;;;;4971039;28;20195;-80
2022/06/22 05:42:09;;;;;;;4.53;2.60;;;18.50;99.90;;;;;;4970704;28;20214;-80
2022/06/22 05:44:36;;;;;;;4.47;2.73;;;18.50;99.90;;;;;;4970517;28;20207;-80
2022/06/22 05:47:04;;;;;;;3.20;2.50;;;18.60;99.90;;;;;;4970719;28;20242;-80
2022/06/22 05:49:42;;;;;;;4.70;2.80;;;18.60;99.90;;;;;;4970483;28;20214;-80
2022/06/22 05:52:15;;;;;;;5.10;2.53;;;18.60;99.90;;;;;;4970418;28;20204;-80
2022/06/22 05:54:47;;;;;;;4.17;2.33;;;18.70;99.90;;;;;;4970625;28;21027;-80
2022/06/22 05:57:20;;;;;;;4.70;2.37;;;18.70;99.90;;;;;;4970401;28;20214;-80
2022/06/22 05:59:50;;;;;;;2.93;2.33;;;18.70;99.90;;;;;;4970181;28;20464;-80
2022/06/22 06:02:29;;;;;;;4.53;2.57;;;18.80;99.90;;;;;;4970083;28;20585;-81
2022/06/22 06:05:03;;;;;;;6.13;3.43;;;18.80;99.90;;;;;;4970357;28;20203;-80
2022/06/22 06:07:34;;;;;;;3.13;2.30;;;18.80;99.90;;;;;;4970496;28;20207;-80
2022/06/22 06:10:03;;;;;;;4.20;2.50;;;18.80;99.90;;;;;;4970476;28;20207;-81
2022/06/22 06:12:35;;;;;;;2.80;2.40;;;18.80;99.90;;;;;;4970703;28;20245;-80
2022/06/22 06:15:04;;;;;;;4.70;2.50;;;18.90;99.90;;;;;;4970261;28;20191;-80
2022/06/22 06:17:35;;;;;;;3.97;2.10;;;18.90;99.90;;;;;;4969485;28;20580;-80
2022/06/22 06:20:07;;;;;;;2.93;2.27;;;18.90;99.90;;;;;;4969513;28;20191;-80
2022/06/22 06:22:36;;;;;;;5.63;2.17;;;19.00;99.90;;;;;;4969649;28;20654;-79
2022/06/22 06:27:59;;;;;;;6.07;2.10;;;19.10;99.90;;;;;;4969712;28;20198;-80
2022/06/22 06:30:29;;;;;;;4.47;2.10;;;19.10;99.90;;;;;;4969573;28;20199;-80
2022/06/22 06:33:00;;;;;;;2.70;2.00;;;19.10;99.90;;;;;;4969710;28;20195;-80
2022/06/22 06:35:33;;;;;;;5.67;1.97;;;19.10;99.90;;;;;;4968958;28;20226;-80
2022/06/22 06:38:17;;;;;;;2.13;1.87;;;19.20;99.90;;;;;;4969480;28;20843;-80
2022/06/22 06:40:49;;;;;;;5.20;2.10;;;19.20;99.90;;;;;;4969761;28;20242;-79
2022/06/22 06:43:29;;;;;;;2.40;1.80;;;19.20;99.90;;;;;;4969492;28;20213;-79
2022/06/22 06:45:57;;;;;;;5.90;1.90;;;19.30;99.90;;;;;;4969958;28;20234;-79
2022/06/22 06:48:27;;;;;;;4.00;1.83;;;19.30;99.90;;;;;;4970321;28;20211;-80
2022/06/22 06:50:59;;;;;;;2.70;1.80;;;19.30;99.90;;;;;;4969883;28;20234;-79
2022/06/22 06:53:29;;;;;;;6.30;2.17;;;19.30;99.90;;;;;;4969526;28;20199;-80
2022/06/22 06:56:01;;;;;;;5.53;2.10;;;19.40;99.90;;;;;;4969355;28;20230;-80
2022/06/22 06:58:40;;;;;;;3.30;2.37;;;19.40;99.90;;;;;;4969621;28;20198;-80
2022/06/22 07:01:10;;;;;;;5.60;1.97;;;19.50;99.90;;;;;;4969974;28;20205;-80
2022/06/22 07:03:43;;;;;;;2.87;1.57;;;19.60;99.90;;;;;;4968875;28;20202;-80
2022/06/22 07:06:12;;;;;;;2.93;1.57;;;19.60;99.90;;;;;;4969455;28;20230;-79
2022/06/22 07:08:45;;;;;;;1.97;1.47;;;19.60;99.90;;;;;;4969255;28;20217;-80
2022/06/22 07:11:18;;;;;;;3.87;1.10;;;19.60;99.90;;;;;;4968901;28;20626;-80
2022/06/22 07:13:49;;;;;;;1.20;1.10;;;19.60;99.90;;;;;;4958798;28;20222;-80
2022/06/22 07:16:21;;;;;;;2.47;1.10;;;19.60;99.90;;;;;;4950381;29;20286;-80
2022/06/22 07:18:51;;;;;;;1.73;1.37;;;19.60;99.90;;;;;;4949905;29;20210;-80
2022/06/22 07:21:25;;;;;;;1.33;1.10;;;19.60;99.90;;;;;;4966595;28;20215;-80
2022/06/22 07:23:56;;;;;;;2.37;1.10;;;19.70;99.90;;;;;;4969751;28;20206;-80
2022/06/22 07:26:31;;;;;;;1.93;1.47;;;19.70;99.90;;;;;;4969262;28;20615;-80
2022/06/22 07:29:05;;;;;;;2.70;1.43;;;19.70;99.90;;;;;;4968515;28;20194;-80
2022/06/22 07:31:38;;;;;;;1.53;1.17;;;19.70;99.90;;;;;;4968866;28;20199;-80
2022/06/22 07:34:12;;;;;;;4.20;1.60;;;19.70;99.90;;;;;;4968853;28;20600;-80
2022/06/22 07:36:46;;;;;;;2.40;1.43;;;19.80;99.90;;;;;;4969360;28;20201;-80
2022/06/22 07:39:17;;;;;;;4.97;1.57;;;20.00;99.90;;;;;;4969129;28;20215;-80
2022/06/22 07:41:44;;;;;;;3.03;1.50;;;20.10;99.90;;;;;;4969050;28;20265;-80
2022/06/22 07:44:16;;;;;;;1.90;1.70;;;20.30;99.30;;;;;;4968819;28;20233;-80
2022/06/22 07:46:47;;;;;;;3.77;1.63;;;20.40;99.50;;;;;;4968836;28;20258;-83
2022/06/22 07:49:17;;;;;;;3.30;1.40;;;20.40;99.70;;;;;;4968955;28;20207;-80
2022/06/22 07:51:50;;;;;;;3.50;1.70;;;20.30;99.90;;;;;;4969064;28;20203;-79
2022/06/22 07:54:21;;;;;;;2.77;1.37;;;20.30;99.90;;;;;;4969015;28;20195;-80
2022/06/22 07:57:03;;;;;;;1.43;1.33;;;20.50;99.90;;;;;;4970097;28;20206;-80
2022/06/22 07:59:34;;;;;;;2.77;1.13;;;20.70;99.10;;;;;;4969270;28;20203;-79
2022/06/22 08:02:06;;;;;;;3.00;1.60;;;20.90;98.80;;;;;;4968775;28;20203;-79
2022/06/22 08:04:38;;;;;;;1.53;1.27;;;20.90;98.00;;;;;;4969066;28;20206;-79
2022/06/22 08:07:10;;;;;;;2.80;1.50;;;21.00;97.50;;;;;;4969191;28;20222;-80
2022/06/22 08:09:41;;;;;;;3.67;1.23;;;21.00;97.40;;;;;;4968742;28;20213;-79
2022/06/22 08:12:15;;;;;;;2.13;1.00;;;20.90;97.30;;;;;;4970205;28;20206;-79
2022/06/22 08:14:44;;;;;;;3.67;1.67;;;21.10;96.50;;;;;;4969982;28;20210;-80
2022/06/22 08:17:15;;;;;;;2.93;1.30;;;21.20;96.80;;;;;;4972906;28;20211;-79
2022/06/22 08:19:43;;;;;;;2.80;1.13;;;21.20;96.50;;;;;;4972118;28;20202;-79
2022/06/22 08:22:13;;;;;;;2.43;1.20;;;21.30;95.90;;;;;;4972793;28;20207;-79
2022/06/22 08:24:49;;;;;;;2.08;1.30;;;21.40;94.80;;;;;;4972709;28;20195;-80
2022/06/22 08:27:19;;;;;;;3.83;1.60;;;21.40;95.70;;;;;;4971923;28;20608;-80
2022/06/22 08:29:48;;;;;;;1.93;1.40;;;21.40;96.10;;;;;;4972555;28;20210;-79
2022/06/22 08:32:22;;;;;;;2.87;1.33;;;21.50;96.00;;;;;;4972196;28;20226;-80
2022/06/22 08:34:52;;;;;;;1.70;1.20;;;21.50;95.60;;;;;;4971733;28;20222;-79
2022/06/22 08:37:28;;;;;;;1.90;1.10;;;21.50;96.00;;;;;;4972030;28;20199;-80
2022/06/22 08:40:00;;;;;;;2.37;1.57;;;21.40;96.20;;;;;;4971885;28;20731;-80
2022/06/22 08:42:41;;;;;;;2.43;1.30;;;21.40;96.50;;;;;;4972276;28;20636;-79
2022/06/22 08:45:38;;;;;;;3.00;1.27;;;21.40;96.40;;;;;;4971598;28;20689;-80
2022/06/22 08:48:37;;;;;;;4.07;1.43;;;21.40;95.80;;;;;;4972346;28;20196;-80
2022/06/22 08:51:16;;;;;;;1.90;1.33;;;21.40;96.30;;;;;;4971937;28;20214;-80
2022/06/22 08:54:10;;;;;;;3.63;1.23;;;21.40;96.80;;;;;;4971654;28;20681;-80
2022/06/22 08:56:50;;;;;;;3.38;1.40;;;21.40;97.50;;;;;;4971792;28;20203;-79
2022/06/22 08:59:43;;;;;;;1.85;1.40;;;21.40;97.40;;;;;;4971765;28;20229;-80
2022/06/22 09:02:30;;;;;;;1.57;1.43;;;21.40;97.20;;;;;;4971232;28;20195;-79
2022/06/22 09:05:19;;;;;;;2.30;1.20;;;21.50;95.90;;;;;;4964778;28;20211;-80
2022/06/22 09:08:18;;;;;;;4.63;1.20;;;21.60;95.40;;;;;;4951436;29;20220;-80
2022/06/22 09:10:57;;;;;;;3.08;1.58;;;21.80;94.80;;;;;;4946641;29;20243;-80
2022/06/22 09:13:45;;;;;;;3.08;1.35;;;21.90;94.30;;;;;;4965118;28;20685;-80
2022/06/22 09:16:27;;;;;;;2.10;1.20;;;21.90;94.70;;;;;;4970755;28;20217;-79
2022/06/22 09:19:29;;;;;;;2.28;1.40;;;22.00;93.00;;;;;;4970721;28;20202;-80
2022/06/22 09:22:06;;;;;;;1.83;1.27;;;22.10;92.80;;;;;;4970857;28;20203;-79
2022/06/22 09:24:41;;;;;;;1.60;1.50;;;22.20;92.50;;;;;;4970609;28;20683;-80
2022/06/22 09:27:17;;;;;;;2.38;1.30;;;22.30;92.40;;;;;;4969698;28;20222;-79
2022/06/22 09:30:01;;;;;;;3.33;1.25;;;22.30;92.80;;;;;;4970437;28;20673;-80
2022/06/22 09:32:58;;;;;;;2.70;1.17;;;22.40;92.80;;;;;;4970405;28;20612;-80
2022/06/22 09:35:56;;;;;;;4.60;1.17;;;22.50;92.70;;;;;;4970364;28;20320;-80
2022/06/22 09:38:46;;;;;;;2.85;1.17;;;22.50;93.10;;;;;;4970429;28;20195;-80
2022/06/22 09:41:25;;;;;;;4.65;1.58;;;22.50;93.20;;;;;;4969954;28;20242;-79
2022/06/22 09:44:20;;;;;;;2.05;1.20;;;22.60;91.60;;;;;;4970341;28;20374;-80
2022/06/22 09:47:14;;;;;;;1.40;1.30;;;22.80;91.40;;;;;;4970194;28;20223;-80
2022/06/22 09:50:02;;;;;;;1.55;1.08;;;22.90;91.30;;;;;;4970175;28;20202;-80
2022/06/22 09:52:59;;;;;;;2.20;1.13;;;22.90;91.40;;;;;;4970378;28;20198;-80
2022/06/22 09:58:53;;;;;;;3.80;1.75;;;22.90;91.80;;;;;;4970085;28;20261;-80
2022/06/22 10:01:30;;;;;;;3.67;1.13;;;22.80;90.80;;;;;;4969189;28;20215;-80
2022/06/22 10:04:16;;;;;;;4.82;1.40;;;22.90;91.10;;;;;;4970521;28;20203;-80
2022/06/22 10:06:55;;;;;;;1.00;1.00;;;23.00;91.10;;;;;;4951077;29;20693;-79
2022/06/22 10:09:48;;;;;;;2.38;1.20;;;23.20;90.30;;;;;;4962147;28;20703;-80
2022/06/22 10:12:38;;;;;;;3.90;1.40;;;23.30;90.80;;;;;;4969845;28;20203;-80
2022/06/22 10:15:36;;;;;;;2.00;1.35;;;23.50;90.20;;;;;;4950915;29;20283;-80
2022/06/22 10:18:17;;;;;;;4.60;1.65;;;23.60;90.40;;;;;;4950780;29;20243;-80
2022/06/22 10:20:57;;;;;;;2.88;1.20;;;23.60;90.00;;;;;;4950625;29;20290;-80
2022/06/22 10:23:40;;;;;;;1.10;1.00;;;23.70;90.20;;;;;;4960015;28;20221;-80
2022/06/22 10:26:18;;;;;;;3.67;1.45;;;23.70;88.80;;;;;;4969489;28;20201;-79
2022/06/22 10:29:12;;;;;;;3.33;1.17;;;23.70;89.30;;;;;;4969397;28;20198;-80
2022/06/22 10:31:54;;;;;;;1.25;1.00;;;23.70;89.60;;;;;;4926786;28;20206;-80
2022/06/22 10:34:38;;;;;;;1.55;1.00;;;23.70;90.00;;;;;;4968984;28;20230;-80
2022/06/22 10:37:30;;;;;;;4.60;1.33;;;23.80;90.60;;;;;;4969379;28;20308;-80
2022/06/22 10:45:57;;;;;;;3.03;1.10;;;24.20;88.30;;;;;;4969122;28;20278;-80
2022/06/22 10:49:07;;;;;;;2.33;1.23;;;24.30;88.60;;;;;;4969283;28;20242;-80
2022/06/22 10:51:59;;;;;;;8.00;1.42;;;24.50;87.20;;;;;;4965991;28;20234;-78
2022/06/22 10:54:59;;;;;;;1.38;1.00;;;24.60;87.00;;;;;;4969216;28;20214;-78
2022/06/22 10:57:47;;;;;;;1.40;1.05;;;24.70;86.40;;;;;;4968653;28;20605;-77
2022/06/22 11:00:23;;;;;;;1.48;1.10;;;24.90;86.00;;;;;;4969351;28;20725;-78
2022/06/22 11:03:47;;;;;;;2.78;1.20;;;24.90;82.60;;;;;;4969053;28;20749;-78
2022/06/22 11:06:54;;;;;;;7.57;1.60;;;25.00;82.60;;;;;;4969031;28;20215;-80
2022/06/22 11:09:33;;;;;;;1.48;1.20;;;25.10;81.70;;;;;;4969430;28;20207;-81
2022/06/22 11:12:25;;;;;;;2.63;1.50;;;25.20;82.90;;;;;;4969322;28;20203;-78
2022/06/22 11:15:32;;;;;;;1.50;1.02;;;25.30;81.90;;;;;;4949704;29;20702;-79
2022/06/22 11:18:28;;;;;;;2.35;1.67;;;25.50;84.00;;;;;;4928088;29;20214;-80
2022/06/22 11:21:17;;;;;;;1.48;1.08;;;25.70;82.30;;;;;;4969010;28;20210;-80
2022/06/22 11:24:14;;;;;;;1.50;1.13;;;25.80;81.50;;;;;;4968681;28;20722;-80
2022/06/22 11:33:01;;;;;;;1.63;1.15;;;26.20;78.90;;;;;;4968872;28;20563;-80
2022/06/22 11:35:41;;;;;;;1.83;1.20;;;26.20;80.30;;;;;;4968787;28;20337;-80
2022/06/22 11:38:43;;;;;;;2.03;1.02;;;26.20;79.10;;;;;;4969671;28;20297;-80
2022/06/22 11:41:29;;;;;;;2.88;1.30;;;26.30;80.00;;;;;;4969250;28;20325;-80
2022/06/22 11:44:31;;;;;;;2.95;1.40;;;26.50;80.30;;;;;;4969652;28;20207;-80
2022/06/22 11:47:06;;;;;;;2.92;1.27;;;26.70;79.40;;;;;;4969196;28;20234;-81
2022/06/22 11:49:56;;;;;;;3.15;1.27;;;26.90;80.20;;;;;;4969426;28;20673;-81
2022/06/22 11:53:00;;;;;;;5.55;1.50;;;27.10;77.80;;;;;;4973186;28;20191;-80
2022/06/22 11:55:30;;;;;;;3.03;0.95;;;27.20;76.00;;;;;;4954025;29;20234;-81
2022/06/22 11:58:25;;;;;;;1.48;1.38;;;27.20;75.90;;;;;;4953553;29;20219;-80
2022/06/22 12:01:17;;;;;;;3.00;1.40;;;27.30;77.20;;;;;;4956500;28;20263;-81
2022/06/22 12:04:26;;;;;;;3.67;1.25;;;27.40;76.60;;;;;;4972334;28;20821;-81
2022/06/22 12:07:38;;;;;;;3.08;1.10;;;27.60;76.40;;;;;;4972152;28;20673;-81
2022/06/22 12:10:22;;;;;;;4.38;1.35;;;27.70;75.70;;;;;;4912573;29;20304;-81
2022/06/22 12:13:08;;;;;;;3.72;1.10;;;27.90;75.50;;;;;;4971484;28;20214;-82
2022/06/22 12:15:55;;;;;;;2.55;1.15;;;28.00;75.80;;;;;;4978542;28;20218;-81
2022/06/22 12:18:48;;;;;;;2.42;1.10;;;28.20;76.10;;;;;;4991465;28;20645;-81
2022/06/22 12:21:36;;;;;;;1.75;1.25;;;28.20;76.70;;;;;;4992078;28;20281;-81
2022/06/22 12:24:13;;;;;;;1.80;1.17;;;28.40;74.30;;;;;;4991679;28;20545;-82
2022/06/22 12:26:49;;;;;;;2.83;1.20;;;28.40;73.80;;;;;;4990311;28;20194;-82
2022/06/22 12:29:40;;;;;;;1.48;1.13;;;28.40;73.90;;;;;;4972016;28;20245;-81
2022/06/22 12:32:17;;;;;;;7.53;1.60;;;28.30;72.50;;;;;;4971924;28;20291;-81
2022/06/22 12:34:53;;;;;;;4.32;1.30;;;28.40;73.20;;;;;;4972172;28;20257;-81
2022/06/22 12:37:26;;;;;;;1.25;1.05;;;28.50;73.60;;;;;;4971837;28;20660;-82
2022/06/22 12:39:57;;;;;;;10.70;1.60;;;28.70;73.60;;;;;;4971908;28;20725;-82
2022/06/22 12:42:38;;;;;;;2.65;1.00;;;28.60;73.30;;;;;;4971774;28;20204;-81
2022/06/22 12:45:26;;;;;;;3.85;1.30;;;28.60;71.60;;;;;;4971566;28;20214;-81
2022/06/22 12:48:20;;;;;;;3.60;1.77;;;28.70;72.60;;;;;;4972209;28;20218;-82
2022/06/22 12:51:06;;;;;;;1.45;1.35;;;29.00;71.60;;;;;;4958763;28;20212;-82
2022/06/22 12:53:37;;;;;;;3.58;1.30;;;29.10;71.80;;;;;;4957122;28;20281;-82
2022/06/22 12:56:12;;;;;;;3.72;1.77;;;29.10;70.80;;;;;;4971440;28;20203;-81
2022/06/22 12:58:45;;;;;;;5.03;1.60;;;29.30;71.00;;;;;;4968722;28;20285;-83
2022/06/22 13:01:12;;;;;;;1.52;1.10;;;29.30;73.00;;;;;;4969094;28;20207;-83
2022/06/22 13:03:48;;;;;;;2.83;1.40;;;29.40;71.00;;;;;;4968889;28;20577;-80
2022/06/22 13:06:15;;;;;;;4.88;1.30;;;29.40;72.70;;;;;;4968792;28;20725;-81
2022/06/22 13:08:43;;;;;;;4.28;1.15;;;29.50;72.10;;;;;;4969920;28;20237;-80
2022/06/22 13:11:18;;;;;;;1.25;1.13;;;29.50;70.50;;;;;;4971293;28;20727;-80
2022/06/22 13:13:57;;;;;;;2.42;1.40;;;29.60;69.50;;;;;;4979082;28;20221;-80
2022/06/22 13:16:29;;;;;;;1.67;1.42;;;29.50;68.50;;;;;;4970300;28;20199;-81
2022/06/22 13:19:06;;;;;;;1.52;1.33;;;29.70;69.60;;;;;;4969861;28;20199;-80
2022/06/22 13:21:39;;;;;;;1.35;1.02;;;29.70;70.60;;;;;;4968803;28;20199;-80
2022/06/22 13:24:14;;;;;;;1.35;1.25;;;29.80;69.00;;;;;;4968682;28;20650;-80
2022/06/22 13:26:52;;;;;;;6.50;1.88;;;30.00;69.70;;;;;;4969348;28;20214;-81
2022/06/22 13:29:26;;;;;;;2.45;1.30;;;29.90;68.60;;;;;;4969703;28;21013;-80
2022/06/22 13:31:58;;;;;;;1.15;1.05;;;29.90;69.00;;;;;;4970333;28;20562;-81
2022/06/22 13:34:33;;;;;;;1.27;1.17;;;30.00;69.30;;;;;;4969249;28;20231;-81
2022/06/22 13:37:09;;;;;;;2.83;1.55;;;29.90;68.00;;;;;;4969337;28;20201;-81
2022/06/22 13:39:47;;;;;;;1.20;1.10;;;30.10;68.60;;;;;;4969520;28;20265;-81
2022/06/22 13:42:40;;;;;;;3.50;1.25;;;30.00;68.10;;;;;;4949481;29;20196;-81
2022/06/22 13:45:38;;;;;;;1.42;1.33;;;30.10;67.10;;;;;;4929786;29;20406;-80
2022/06/22 13:48:21;;;;;;;4.90;1.63;;;30.40;66.60;;;;;;4918097;29;20981;-81
2022/06/22 13:51:13;;;;;;;2.88;1.08;;;30.60;66.30;;;;;;4933031;29;20203;-79
2022/06/22 13:54:11;;;;;;;2.65;1.27;;;30.60;66.90;;;;;;4948021;29;20693;-80
2022/06/22 13:56:51;;;;;;;2.28;1.05;;;30.50;65.80;;;;;;4949239;29;20287;-80
2022/06/22 13:59:22;;;;;;;2.47;1.00;;;30.60;66.30;;;;;;4948890;29;20654;-77
2022/06/22 14:01:54;;;;;;;2.35;1.45;;;30.90;69.50;;;;;;4949190;29;20704;-77
2022/06/22 14:04:30;;;;;;;1.63;1.35;;;30.60;68.60;;;;;;4949065;28;20199;-77
2022/06/22 14:07:03;;;;;;;2.45;1.10;;;30.40;74.40;;;;;;4949182;29;20362;-80